Time;durP1;ratioP1;P1;durP2;ratioP2;P2;SDS_P1;SDS_P2;PMS_P1;PMS_P2;Temp;Humidity;BMP_temperature;BMP_pressure;BME280_temperature;BME280_humidity;BME280_pressure;Samples;Min_cycle;Max_cycle;Signal;HPM_P1;HPM_P2
2023/05/18 00:00:36;;;;;;;23.40;11.95;;;;;;;22.78;76.99;98530.13;4990997;28;20046;-60
2023/05/18 00:03:06;;;;;;;24.90;12.88;;;;;;;22.82;73.21;98533.06;4993524;28;20042;-59
2023/05/18 00:05:36;;;;;;;25.23;13.48;;;;;;;22.93;75.30;98531.13;4987473;28;20126;-59
2023/05/18 00:08:05;;;;;;;24.35;13.68;;;;;;;23.05;74.50;98527.03;4985960;28;20473;-60
2023/05/18 00:10:37;;;;;;;19.88;11.63;;;;;;;22.93;70.99;98534.63;4989497;28;20053;-60
2023/05/18 00:13:07;;;;;;;17.73;9.73;;;;;;;22.87;69.03;98526.84;4990032;28;20382;-60
2023/05/18 00:15:36;;;;;;;16.15;8.52;;;;;;;22.92;69.61;98516.84;4972651;28;20619;-60
2023/05/18 00:18:06;;;;;;;18.88;8.98;;;;;;;23.07;72.46;98524.84;4985348;28;20046;-60
2023/05/18 00:20:35;;;;;;;20.08;10.02;;;;;;;22.92;69.95;98529.53;4987985;28;20934;-59
2023/05/18 00:23:09;;;;;;;20.25;10.52;;;;;;;22.94;70.92;98536.25;4987700;28;20145;-60
2023/05/18 00:25:38;;;;;;;22.00;9.80;;;;;;;22.89;69.64;98559.78;4972456;28;20046;-61
2023/05/18 00:28:08;;;;;;;17.70;10.43;;;;;;;23.02;70.93;98565.41;4972421;28;20630;-59
2023/05/18 00:30:38;;;;;;;17.63;9.40;;;;;;;23.16;70.48;98571.00;4979684;28;20355;-60
2023/05/18 00:33:07;;;;;;;16.90;9.10;;;;;;;23.08;69.98;98580.50;4987083;28;20058;-59
2023/05/18 00:35:37;;;;;;;15.90;8.55;;;;;;;23.14;70.37;98581.31;4988905;28;20057;-59
2023/05/18 00:38:07;;;;;;;15.15;8.70;;;;;;;23.10;70.72;98583.72;4991628;28;20050;-59
2023/05/18 00:40:39;;;;;;;14.65;8.10;;;;;;;23.12;70.80;98597.78;4987289;28;20050;-60
2023/05/18 00:43:09;;;;;;;18.33;8.63;;;;;;;23.24;73.93;98597.47;4984563;28;20104;-59
2023/05/18 00:45:39;;;;;;;18.30;8.80;;;;;;;23.41;73.96;98610.66;4966378;28;20161;-59
2023/05/18 00:48:08;;;;;;;17.52;9.20;;;;;;;23.19;70.51;98608.31;4972515;28;20124;-59
2023/05/18 00:50:38;;;;;;;15.45;8.63;;;;;;;23.22;72.44;98603.16;4972422;28;20134;-58
2023/05/18 00:53:09;;;;;;;17.00;9.38;;;;;;;23.40;72.19;98606.31;4986223;28;20068;-59
2023/05/18 00:55:46;;;;;;;17.02;9.15;;;;;;;23.44;70.53;98612.81;4986948;28;20057;-59
2023/05/18 00:58:16;;;;;;;23.73;8.07;;;;;;;23.46;70.10;98622.25;4970603;28;20053;-60
2023/05/18 01:00:45;;;;;;;20.27;7.15;;;;;;;23.34;69.22;98626.34;4974520;28;20511;-59
2023/05/18 01:03:18;;;;;;;11.23;5.82;;;;;;;23.43;69.12;98636.31;4987475;28;20132;-60
2023/05/18 01:05:49;;;;;;;16.05;6.18;;;;;;;23.59;68.60;98623.53;4972409;28;20042;-60
2023/05/18 01:08:19;;;;;;;15.98;5.50;;;;;;;23.60;67.81;98630.56;4986617;28;20047;-61
2023/05/18 01:11:02;;;;;;;8.40;4.65;;;;;;;23.67;68.22;98642.72;4985368;28;20042;-60
2023/05/18 01:13:48;;;;;;;13.95;5.60;;;;;;;23.87;68.05;98647.19;4975160;28;20059;-62
2023/05/18 01:16:25;;;;;;;10.77;5.72;;;;;;;23.97;67.43;98651.72;4982661;28;20810;-61
2023/05/18 01:19:19;;;;;;;13.23;5.80;;;;;;;23.60;67.02;98647.59;4978570;28;20085;-60
2023/05/18 01:22:23;;;;;;;11.10;5.50;;;;;;;23.86;68.29;98661.78;4983263;28;20046;-60
2023/05/18 01:25:13;;;;;;;10.57;5.07;;;;;;;23.86;66.85;98667.19;4971150;28;20050;-61
2023/05/18 01:27:46;;;;;;;11.45;5.90;;;;;;;23.77;67.32;98666.16;4988106;28;20051;-60
2023/05/18 01:30:18;;;;;;;16.00;6.63;;;;;;;23.74;67.97;98666.75;4987003;28;20162;-60
2023/05/18 01:32:48;;;;;;;18.40;7.15;;;;;;;23.42;69.00;98672.53;4986775;28;20053;-62
2023/05/18 01:35:17;;;;;;;13.05;6.18;;;;;;;23.36;70.12;98670.13;4986909;28;20055;-62
2023/05/18 01:37:46;;;;;;;14.63;6.75;;;;;;;23.43;70.34;98681.44;4992262;28;20303;-60
2023/05/18 01:40:17;;;;;;;14.38;7.80;;;;;;;23.53;70.69;98671.44;5005289;28;20057;-60
2023/05/18 01:42:51;;;;;;;13.38;6.38;;;;;;;23.53;71.14;98673.34;4974068;28;20825;-61
2023/05/18 01:45:26;;;;;;;16.98;7.47;;;;;;;23.64;70.71;98674.88;4986798;28;20695;-60
2023/05/18 01:48:01;;;;;;;17.35;7.38;;;;;;;23.57;70.63;98675.22;4987621;28;20069;-60
2023/05/18 01:50:38;;;;;;;13.68;7.47;;;;;;;23.64;71.45;98672.19;4986519;28;20061;-61
2023/05/18 01:53:37;;;;;;;16.08;7.95;;;;;;;23.64;71.64;98677.59;4984473;28;20062;-60
2023/05/18 01:56:10;;;;;;;18.17;8.10;;;;;;;23.55;71.78;98682.78;4974908;28;20422;-61
2023/05/18 01:58:40;;;;;;;17.02;8.95;;;;;;;23.79;71.37;98669.41;4989631;28;20050;-59
2023/05/18 02:01:09;;;;;;;19.42;8.60;;;;;;;23.77;71.04;98690.50;4981854;28;20059;-60
2023/05/18 02:03:39;;;;;;;21.55;8.70;;;;;;;23.70;72.30;98682.72;4966803;28;20054;-62
2023/05/18 02:06:08;;;;;;;15.85;8.30;;;;;;;23.71;71.29;98684.34;4982445;28;20046;-61
2023/05/18 02:08:38;;;;;;;19.02;7.55;;;;;;;23.85;71.57;98673.72;4982777;28;20101;-60
2023/05/18 02:11:08;;;;;;;16.83;6.97;;;;;;;24.01;71.04;98677.94;4967820;28;20050;-61
2023/05/18 02:13:39;;;;;;;13.32;6.85;;;;;;;24.04;71.16;98680.09;4986214;28;20054;-60
2023/05/18 02:16:10;;;;;;;18.42;6.88;;;;;;;24.02;70.63;98676.06;4986456;28;20062;-61
2023/05/18 02:18:40;;;;;;;17.33;7.18;;;;;;;23.63;70.84;98687.59;4985756;28;20050;-60
2023/05/18 02:21:09;;;;;;;16.00;7.57;;;;;;;23.79;71.51;98685.66;4982535;28;20513;-59
2023/05/18 02:23:40;;;;;;;15.32;6.75;;;;;;;23.91;71.01;98691.53;4985622;28;20153;-61
2023/05/18 02:26:10;;;;;;;14.10;6.85;;;;;;;23.88;70.50;98700.22;4984312;28;20769;-60
2023/05/18 02:28:39;;;;;;;15.40;7.13;;;;;;;23.93;69.98;98702.88;4968807;28;20054;-60
2023/05/18 02:31:11;;;;;;;14.98;6.93;;;;;;;23.96;69.46;98707.72;4983219;28;20038;-60
2023/05/18 02:33:40;;;;;;;15.20;6.97;;;;;;;24.13;69.49;98720.88;4966383;28;20054;-60
2023/05/18 02:36:11;;;;;;;14.70;7.45;;;;;;;24.39;70.00;98732.38;4985499;28;20069;-60
2023/05/18 02:38:43;;;;;;;13.98;6.20;;;;;;;24.45;68.28;98733.97;4997823;28;20051;-60
2023/05/18 02:41:12;;;;;;;13.40;5.68;;;;;;;24.36;67.79;98732.97;4997367;28;20093;-61
2023/05/18 02:43:42;;;;;;;12.40;5.97;;;;;;;24.57;66.03;98729.00;4984083;28;20050;-60
2023/05/18 02:46:11;;;;;;;14.95;5.50;;;;;;;25.05;66.04;98733.50;4966528;28;20046;-60
2023/05/18 02:48:44;;;;;;;11.65;5.57;;;;;;;25.32;64.55;98738.38;4968779;28;20056;-60
2023/05/18 02:51:14;;;;;;;11.40;5.60;;;;;;;25.25;62.35;98737.13;4983152;28;20286;-61
2023/05/18 02:53:43;;;;;;;11.75;5.85;;;;;;;25.69;60.81;98745.06;4981835;28;20051;-60
2023/05/18 02:56:16;;;;;;;13.48;5.30;;;;;;;26.35;59.72;98748.53;4965164;28;20364;-60
2023/05/18 02:59:03;;;;;;;11.20;4.97;;;;;;;26.81;60.42;98769.59;4965518;28;20074;-61
2023/05/18 03:01:42;;;;;;;13.73;5.28;;;;;;;27.78;55.63;98782.31;4975261;28;20653;-60
2023/05/18 03:04:12;;;;;;;12.77;4.80;;;;;;;27.44;56.00;98783.44;4987267;28;20053;-59
2023/05/18 03:06:51;;;;;;;17.30;5.25;;;;;;;27.99;54.73;98783.50;4985173;28;20473;-60
2023/05/18 03:09:22;;;;;;;14.27;5.38;;;;;;;27.93;53.88;98784.69;4985696;28;20050;-59
2023/05/18 03:11:54;;;;;;;7.95;5.15;;;;;;;27.34;55.28;98799.97;4970367;28;20061;-61
2023/05/18 03:14:23;;;;;;;10.43;4.60;;;;;;;27.91;54.99;98812.25;4983982;28;20058;-60
2023/05/18 03:16:56;;;;;;;12.18;4.82;;;;;;;28.05;53.60;98813.06;4985220;28;20060;-59
2023/05/18 03:19:26;;;;;;;13.43;5.15;;;;;;;28.15;53.30;98803.09;4987712;28;20421;-61
2023/05/18 03:21:56;;;;;;;9.38;5.20;;;;;;;27.80;53.95;98799.94;4998554;28;20126;-60
2023/05/18 03:24:28;;;;;;;14.15;5.40;;;;;;;27.36;55.30;98807.81;4984753;28;20074;-62
2023/05/18 03:27:01;;;;;;;11.73;5.22;;;;;;;27.61;54.43;98819.09;4969065;28;20038;-59
2023/05/18 03:29:31;;;;;;;18.83;5.75;;;;;;;28.12;53.18;98810.75;4967081;28;20142;-59
2023/05/18 03:32:02;;;;;;;11.13;4.80;;;;;;;28.32;53.29;98804.06;4982857;28;20046;-63
2023/05/18 03:34:37;;;;;;;11.27;5.28;;;;;;;28.13;53.33;98814.28;4968752;28;20070;-61
2023/05/18 03:37:07;;;;;;;13.52;5.03;;;;;;;28.23;52.61;98822.25;4979292;28;20753;-60
2023/05/18 03:39:37;;;;;;;9.38;4.72;;;;;;;28.41;52.64;98813.13;4966918;28;20065;-60
2023/05/18 03:42:06;;;;;;;13.57;5.20;;;;;;;28.69;52.35;98821.22;4963548;28;20051;-61
2023/05/18 03:44:36;;;;;;;14.48;6.68;;;;;;;29.12;51.03;98806.00;4967733;28;20112;-61
2023/05/18 03:47:07;;;;;;;10.57;4.60;;;;;;;29.77;50.67;98805.44;4983526;28;20157;-62
2023/05/18 03:49:36;;;;;;;12.57;4.75;;;;;;;29.94;48.71;98805.53;4982178;28;20046;-62
2023/05/18 03:52:06;;;;;;;14.52;5.30;;;;;;;30.18;49.33;98816.03;4978348;28;20059;-60
2023/05/18 03:54:37;;;;;;;11.73;5.00;;;;;;;29.82;50.02;98824.41;4973480;28;20150;-61
2023/05/18 03:57:06;;;;;;;15.77;6.90;;;;;;;29.40;51.30;98823.06;4985432;28;20106;-61
2023/05/18 03:59:35;;;;;;;11.32;7.60;;;;;;;29.57;54.03;98836.00;4978853;28;20538;-65
2023/05/18 04:02:06;;;;;;;17.27;7.60;;;;;;;29.05;50.22;98832.13;4978767;28;20411;-64
2023/05/18 04:04:36;;;;;;;9.85;4.80;;;;;;;29.56;48.84;98831.69;4984801;28;20058;-63
2023/05/18 04:07:06;;;;;;;12.10;4.40;;;;;;;29.01;49.21;98843.66;5002138;28;20470;-63
2023/05/18 04:09:35;;;;;;;11.80;4.88;;;;;;;29.74;49.25;98842.34;5004190;28;20402;-66
2023/05/18 04:12:05;;;;;;;12.63;4.97;;;;;;;29.58;48.83;98841.16;4978083;28;20117;-64
2023/05/18 04:14:35;;;;;;;10.50;6.55;;;;;;;29.55;49.37;98844.53;4964602;28;20371;-64
2023/05/18 04:17:05;;;;;;;15.32;6.20;;;;;;;29.48;49.38;98848.78;4964648;28;20614;-63
2023/05/18 04:19:36;;;;;;;11.45;4.95;;;;;;;29.36;48.94;98850.19;4949333;28;20378;-66
2023/05/18 04:22:08;;;;;;;11.48;5.15;;;;;;;29.68;49.48;98843.63;4983040;28;20124;-65
2023/05/18 04:24:40;;;;;;;8.38;4.88;;;;;;;30.10;48.36;98847.66;4964502;28;20065;-61
2023/05/18 04:27:10;;;;;;;16.50;5.47;;;;;;;30.54;49.68;98848.59;4987332;28;20051;-66
2023/05/18 04:29:42;;;;;;;15.18;4.85;;;;;;;30.59;46.08;98849.25;4990396;28;20141;-64
2023/05/18 04:32:12;;;;;;;13.60;6.97;;;;;;;30.12;47.20;98844.63;4988313;28;20105;-68
2023/05/18 04:34:42;;;;;;;19.65;9.30;;;;;;;30.73;45.07;98846.38;4988387;28;20474;-64
2023/05/18 04:37:12;;;;;;;16.45;4.93;;;;;;;30.40;46.29;98843.25;4982451;28;20042;-63
2023/05/18 04:39:42;;;;;;;18.58;7.57;;;;;;;30.23;47.01;98844.00;4978673;28;20648;-64
2023/05/18 04:42:13;;;;;;;13.93;5.50;;;;;;;30.08;48.36;98847.19;4979216;28;20038;-65
2023/05/18 04:44:43;;;;;;;21.08;9.68;;;;;;;31.12;46.41;98839.94;4979318;28;20042;-62
2023/05/18 04:47:12;;;;;;;15.13;7.05;;;;;;;30.71;47.77;98846.69;4978969;28;20088;-62
2023/05/18 04:49:43;;;;;;;16.83;5.45;;;;;;;30.04;46.51;98850.88;4964688;28;20057;-63
2023/05/18 04:52:13;;;;;;;21.77;9.07;;;;;;;30.38;46.72;98852.88;4977700;28;20117;-61
2023/05/18 04:54:43;;;;;;;17.73;5.38;;;;;;;30.25;47.04;98844.50;4965502;28;20386;-62
2023/05/18 04:57:12;;;;;;;9.90;4.78;;;;;;;30.59;43.78;98851.97;4967875;28;20149;-61
2023/05/18 04:59:46;;;;;;;15.35;5.00;;;;;;;31.31;44.95;98853.28;4987282;28;20141;-63
2023/05/18 05:02:16;;;;;;;13.25;4.60;;;;;;;31.71;46.12;98864.81;4986116;28;20057;-61
2023/05/18 05:04:47;;;;;;;14.77;7.30;;;;;;;31.51;43.02;98864.34;4975542;28;20077;-64
2023/05/18 05:07:17;;;;;;;21.13;7.75;;;;;;;31.13;44.43;98864.25;4986745;28;20737;-65
2023/05/18 05:09:47;;;;;;;13.10;6.50;;;;;;;31.51;43.02;98866.31;4986676;28;20062;-63
2023/05/18 05:12:16;;;;;;;32.95;11.02;;;;;;;32.07;42.69;98854.19;4969425;28;20137;-62
2023/05/18 05:14:46;;;;;;;8.38;4.35;;;;;;;31.70;40.59;98858.53;4985894;28;20701;-64
2023/05/18 05:17:15;;;;;;;7.85;3.85;;;;;;;31.65;43.66;98861.44;4984926;28;20046;-63
2023/05/18 05:19:44;;;;;;;12.13;4.20;;;;;;;31.75;44.07;98860.28;4987139;28;20069;-66
2023/05/18 05:22:14;;;;;;;9.70;4.60;;;;;;;32.25;42.89;98866.72;4966829;28;20838;-64
2023/05/18 05:24:44;;;;;;;12.25;4.97;;;;;;;31.41;42.22;98869.38;4985389;28;20602;-63
2023/05/18 05:27:14;;;;;;;9.88;4.38;;;;;;;32.03;41.69;98867.78;4977521;28;20200;-62
2023/05/18 05:29:46;;;;;;;10.68;4.18;;;;;;;32.09;43.13;98868.41;4984646;28;20078;-62
2023/05/18 05:32:16;;;;;;;9.10;3.80;;;;;;;31.89;42.67;98864.44;4985685;28;20038;-64
2023/05/18 05:34:49;;;;;;;13.93;4.20;;;;;;;32.28;40.32;98868.78;4978460;28;20073;-63
2023/05/18 05:37:20;;;;;;;9.13;4.10;;;;;;;32.01;41.84;98874.69;4986467;28;20058;-60
2023/05/18 05:39:52;;;;;;;8.52;4.15;;;;;;;32.23;38.74;98874.47;4981615;28;20727;-63
2023/05/18 05:42:24;;;;;;;11.32;4.72;;;;;;;32.04;41.44;98863.88;4966074;28;20050;-60
2023/05/18 05:44:54;;;;;;;11.75;6.18;;;;;;;32.40;41.60;98868.88;4993648;28;20068;-60
2023/05/18 05:47:26;;;;;;;17.58;4.80;;;;;;;32.39;41.99;98871.97;4983135;28;20062;-61
2023/05/18 05:49:55;;;;;;;7.88;4.40;;;;;;;31.62;40.16;98862.09;4970187;28;20051;-62
2023/05/18 05:52:27;;;;;;;15.07;4.65;;;;;;;31.82;41.42;98868.81;4972510;28;20065;-62
2023/05/18 05:54:58;;;;;;;10.30;4.33;;;;;;;31.73;41.18;98860.63;4969285;28;20065;-61
2023/05/18 05:57:27;;;;;;;11.13;4.75;;;;;;;32.12;41.69;98861.47;4974968;28;20054;-59
2023/05/18 05:59:57;;;;;;;15.20;4.82;;;;;;;32.55;44.56;98872.97;4983647;28;20069;-59
2023/05/18 06:02:27;;;;;;;10.57;4.72;;;;;;;31.27;39.82;98877.78;4983527;28;20427;-60
2023/05/18 06:04:57;;;;;;;19.23;4.45;;;;;;;31.53;40.57;98874.97;4984290;28;20050;-60
2023/05/18 06:07:27;;;;;;;13.30;4.55;;;;;;;31.92;43.18;98873.91;4984190;28;20133;-60
2023/05/18 06:09:56;;;;;;;15.65;4.53;;;;;;;32.34;43.26;98875.69;4986646;28;20147;-61
2023/05/18 06:12:27;;;;;;;11.70;4.13;;;;;;;31.57;39.35;98871.31;4982501;28;20139;-64
2023/05/18 06:14:58;;;;;;;8.77;4.13;;;;;;;31.98;42.40;98867.94;4978708;28;20078;-62
2023/05/18 06:17:29;;;;;;;6.22;3.55;;;;;;;32.39;38.15;98867.28;4983250;28;20054;-63
2023/05/18 06:19:59;;;;;;;11.15;4.15;;;;;;;32.33;41.92;98867.78;4984858;28;20058;-61
2023/05/18 06:22:30;;;;;;;12.82;4.65;;;;;;;32.67;41.42;98875.84;4983147;28;20054;-63
2023/05/18 06:25:21;;;;;;;10.13;4.07;;;;;;;32.69;40.74;98868.09;4984597;28;20505;-62
2023/05/18 06:28:20;;;;;;;8.10;3.58;;;;;;;32.50;39.46;98864.94;4984622;28;20129;-61
2023/05/18 06:30:57;;;;;;;10.30;2.90;;;;;;;32.70;37.48;98855.19;4978268;28;20489;-61
2023/05/18 06:33:45;;;;;;;7.32;3.45;;;;;;;32.60;37.99;98859.09;4978561;28;20061;-62
2023/05/18 06:36:16;;;;;;;7.65;3.42;;;;;;;32.48;36.52;98864.50;4985347;28;20078;-60
2023/05/18 06:38:46;;;;;;;9.55;3.55;;;;;;;32.39;36.94;98850.84;4987033;28;20625;-60
2023/05/18 06:41:15;;;;;;;11.45;3.90;;;;;;;32.75;38.55;98852.22;4984702;28;20046;-61
2023/05/18 06:43:46;;;;;;;11.40;4.25;;;;;;;32.25;35.87;98849.47;4979442;28;20061;-63
2023/05/18 06:46:30;;;;;;;12.63;4.15;;;;;;;32.59;37.91;98849.25;4985166;28;20497;-63
2023/05/18 06:49:01;;;;;;;8.95;2.88;;;;;;;32.90;38.08;98844.19;4967547;28;20652;-62
2023/05/18 06:51:32;;;;;;;11.82;4.18;;;;;;;32.56;36.40;98838.94;4976935;28;20137;-61
2023/05/18 06:54:07;;;;;;;7.75;3.70;;;;;;;32.88;39.29;98834.69;4975321;28;20050;-63
2023/05/18 06:56:37;;;;;;;11.60;3.25;;;;;;;33.19;37.18;98829.59;4983516;28;20104;-59
2023/05/18 06:59:07;;;;;;;9.23;3.67;;;;;;;33.17;38.92;98836.53;4985704;28;20494;-61
2023/05/18 07:01:37;;;;;;;7.28;3.80;;;;;;;33.03;35.84;98825.81;4961467;28;20064;-62
2023/05/18 07:04:06;;;;;;;15.23;3.70;;;;;;;33.09;38.78;98824.50;4985072;28;20056;-60
2023/05/18 07:06:37;;;;;;;10.45;3.92;;;;;;;33.14;37.57;98823.47;4987464;28;20733;-61
2023/05/18 07:09:07;;;;;;;8.70;3.30;;;;;;;33.17;36.72;98823.63;4969362;28;20062;-60
2023/05/18 07:11:39;;;;;;;8.77;4.38;;;;;;;32.71;37.83;98819.16;4969988;28;20065;-62
2023/05/18 07:14:08;;;;;;;10.68;3.95;;;;;;;32.77;40.57;98823.31;4986320;28;20062;-62
2023/05/18 07:16:38;;;;;;;12.00;3.65;;;;;;;32.99;37.67;98819.41;4986828;28;20054;-63
2023/05/18 07:19:08;;;;;;;13.50;3.83;;;;;;;33.01;37.55;98814.41;4986527;28;20057;-61
2023/05/18 07:21:38;;;;;;;8.10;3.88;;;;;;;32.76;39.69;98818.16;4986072;28;20050;-62
2023/05/18 07:24:08;;;;;;;9.05;3.40;;;;;;;32.84;38.96;98798.88;4982183;28;20054;-61
2023/05/18 07:26:38;;;;;;;8.48;3.85;;;;;;;32.68;36.04;98803.38;4985158;28;20133;-61
2023/05/18 07:29:07;;;;;;;9.18;3.55;;;;;;;32.79;37.43;98798.28;4984419;28;20746;-62
2023/05/18 07:31:39;;;;;;;12.13;3.60;;;;;;;32.65;35.53;98798.56;4985611;28;20050;-60
2023/05/18 07:34:08;;;;;;;11.63;3.63;;;;;;;32.66;36.11;98802.13;4984734;28;20375;-60
2023/05/18 07:36:38;;;;;;;9.88;4.13;;;;;;;32.60;35.90;98787.75;4978651;28;20054;-60
2023/05/18 07:39:07;;;;;;;12.45;3.85;;;;;;;32.56;35.96;98786.84;4967810;28;20054;-60
2023/05/18 07:41:37;;;;;;;10.20;3.63;;;;;;;32.87;36.35;98797.41;4988781;28;20815;-61
2023/05/18 07:44:07;;;;;;;12.70;3.42;;;;;;;32.85;37.77;98792.25;4980569;28;20664;-60
2023/05/18 07:46:37;;;;;;;13.85;3.65;;;;;;;33.04;37.32;98794.50;4985507;28;20123;-60
2023/05/18 07:49:07;;;;;;;5.82;2.92;;;;;;;33.09;36.26;98783.31;4983766;28;20038;-62
2023/05/18 07:51:36;;;;;;;8.10;3.33;;;;;;;32.98;36.03;98788.41;4985492;28;20129;-60
2023/05/18 07:54:06;;;;;;;12.07;3.70;;;;;;;32.83;35.58;98789.06;4982732;28;20054;-61
2023/05/18 07:56:35;;;;;;;10.40;3.33;;;;;;;33.04;35.70;98777.22;4985839;28;20081;-60
2023/05/18 07:59:05;;;;;;;7.53;3.53;;;;;;;33.16;38.11;98780.84;4985323;28;20049;-61
2023/05/18 08:01:36;;;;;;;7.28;3.08;;;;;;;32.75;36.83;98780.91;4984601;28;20051;-61
2023/05/18 08:04:06;;;;;;;6.22;3.38;;;;;;;32.33;35.77;98780.88;4983909;28;20050;-64
2023/05/18 08:06:35;;;;;;;11.55;3.58;;;;;;;32.28;35.37;98778.31;4984400;28;20113;-61
2023/05/18 08:09:05;;;;;;;14.38;3.83;;;;;;;32.59;36.56;98766.94;4985043;28;20074;-61
2023/05/18 08:11:36;;;;;;;11.27;3.80;;;;;;;32.68;37.72;98755.94;4982895;28;20057;-63
2023/05/18 08:14:05;;;;;;;10.60;3.72;;;;;;;32.85;37.97;98753.84;4982997;28;20074;-60
2023/05/18 08:16:36;;;;;;;15.70;3.95;;;;;;;32.50;34.78;98747.03;4983390;28;20065;-61
2023/05/18 08:19:06;;;;;;;9.90;3.65;;;;;;;32.66;37.07;98744.50;4985034;28;20113;-61
2023/05/18 08:21:35;;;;;;;11.93;4.43;;;;;;;32.82;36.53;98742.75;4984753;28;20137;-61
2023/05/18 08:24:07;;;;;;;11.35;3.55;;;;;;;32.58;35.84;98740.66;4985617;28;20066;-61
2023/05/18 08:26:36;;;;;;;14.50;4.95;;;;;;;32.36;33.83;98732.78;4969667;28;20050;-59
2023/05/18 08:29:08;;;;;;;10.55;3.75;;;;;;;32.47;35.86;98731.25;4985309;28;20056;-59
2023/05/18 08:31:41;;;;;;;;;;;;;;;32.33;35.44;98726.03;4990715;28;20073;-59
2023/05/18 08:34:11;;;;;;;13.02;4.00;;;;;;;32.32;36.10;98729.91;4985937;28;19945;-60
2023/05/18 08:36:43;;;;;;;8.68;3.70;;;;;;;32.37;37.67;98717.94;4989718;28;20422;-59
2023/05/18 08:39:13;;;;;;;16.83;5.35;;;;;;;32.08;35.49;98714.13;4989932;28;20050;-59
2023/05/18 08:42:17;;;;;;;11.57;4.30;;;;;;;32.13;35.82;98715.88;4983000;28;20504;-59
2023/05/18 08:44:56;;;;;;;7.72;4.15;;;;;;;32.29;35.37;98716.06;4972957;28;20054;-63
2023/05/18 08:47:29;;;;;;;8.15;3.67;;;;;;;32.24;35.65;98708.84;4984593;28;20061;-60
2023/05/18 08:50:02;;;;;;;8.80;4.00;;;;;;;32.41;36.84;98705.16;4989476;28;20496;-60
2023/05/18 08:52:36;;;;;;;16.67;4.53;;;;;;;32.27;34.75;98699.94;4988921;28;20050;-63
2023/05/18 08:55:07;;;;;;;10.23;3.85;;;;;;;32.39;36.50;98688.25;4988142;28;20061;-66
2023/05/18 08:57:42;;;;;;;10.48;4.18;;;;;;;32.18;34.83;98687.44;4989243;28;20054;-68
2023/05/18 09:00:14;;;;;;;10.70;4.30;;;;;;;32.33;38.43;98693.13;4980302;28;20057;-66
2023/05/18 09:02:44;;;;;;;9.85;4.43;;;;;;;32.35;35.97;98690.84;4982839;28;20100;-60
2023/05/18 09:05:15;;;;;;;13.20;4.78;;;;;;;32.43;36.74;98680.97;4984932;28;20116;-61
2023/05/18 09:07:46;;;;;;;13.95;4.47;;;;;;;32.29;34.22;98683.19;4986006;28;20054;-62
2023/05/18 09:10:17;;;;;;;10.98;4.18;;;;;;;32.12;36.50;98683.31;4984543;28;20050;-61
2023/05/18 09:12:50;;;;;;;10.30;4.30;;;;;;;31.95;35.42;98674.06;4984593;28;20116;-61
2023/05/18 09:15:20;;;;;;;8.48;3.97;;;;;;;32.20;37.09;98666.81;4984151;28;20163;-61
2023/05/18 09:17:53;;;;;;;17.02;4.93;;;;;;;32.45;36.72;98657.53;4985010;28;20120;-59
2023/05/18 09:20:25;;;;;;;8.20;4.50;;;;;;;32.37;34.80;98658.41;4984679;28;20129;-63
2023/05/18 09:22:55;;;;;;;9.27;4.87;;;;;;;32.27;36.34;98653.34;4982578;28;20805;-63
2023/05/18 09:25:28;;;;;;;8.00;4.70;;;;;;;32.33;35.98;98649.28;4978757;28;20459;-62
2023/05/18 09:27:59;;;;;;;14.35;4.82;;;;;;;32.50;36.77;98649.09;4988246;28;20058;-60
2023/05/18 09:30:28;;;;;;;10.85;4.90;;;;;;;32.54;36.74;98641.00;4993917;28;20050;-59
2023/05/18 09:32:58;;;;;;;13.35;4.65;;;;;;;32.66;34.76;98646.56;4988234;28;20043;-59
2023/05/18 09:35:31;;;;;;;8.88;3.88;;;;;;;32.57;34.55;98637.59;4987593;28;20069;-60
2023/05/18 09:38:03;;;;;;;9.02;4.45;;;;;;;32.64;35.86;98635.13;4988873;28;20525;-60
2023/05/18 09:40:33;;;;;;;10.27;4.20;;;;;;;32.82;36.08;98627.50;4987229;28;20537;-63
2023/05/18 09:43:07;;;;;;;14.50;4.72;;;;;;;32.89;36.66;98628.53;4979812;28;20053;-63
2023/05/18 09:45:42;;;;;;;13.23;4.75;;;;;;;32.89;36.38;98620.31;4977797;28;20058;-59
2023/05/18 09:48:16;;;;;;;10.10;4.68;;;;;;;32.83;35.79;98607.97;4973865;28;20043;-61
2023/05/18 09:50:46;;;;;;;15.38;5.22;;;;;;;32.97;36.68;98611.16;4994275;28;20132;-60
2023/05/18 09:53:15;;;;;;;15.65;4.72;;;;;;;32.98;37.43;98601.78;4992508;28;20043;-63
2023/05/18 09:55:49;;;;;;;10.40;4.72;;;;;;;32.94;36.20;98598.13;4983208;28;20065;-60
2023/05/18 09:58:18;;;;;;;16.10;5.43;;;;;;;32.65;33.59;98598.31;4986663;28;20046;-61
2023/05/18 10:00:55;;;;;;;8.75;4.45;;;;;;;32.70;35.11;98592.63;4987860;28;20046;-59
2023/05/18 10:03:25;;;;;;;12.55;4.38;;;;;;;32.70;35.88;98589.09;4986416;28;20363;-59
2023/05/18 10:05:54;;;;;;;8.65;4.43;;;;;;;32.73;35.07;98583.72;4970728;28;20141;-60
2023/05/18 10:08:24;;;;;;;14.82;5.75;;;;;;;32.74;35.72;98579.03;4986167;28;20141;-60
2023/05/18 10:10:54;;;;;;;18.08;4.90;;;;;;;32.68;35.23;98578.44;4982270;28;20133;-60
2023/05/18 10:13:26;;;;;;;11.10;4.55;;;;;;;32.57;34.75;98574.50;4986337;28;20488;-60
2023/05/18 10:16:01;;;;;;;7.38;4.22;;;;;;;32.65;35.67;98568.16;4987329;28;20057;-60
2023/05/18 10:18:36;;;;;;;7.20;4.10;;;;;;;32.69;36.28;98568.28;4987010;28;20105;-60
2023/05/18 10:21:07;;;;;;;13.88;5.35;;;;;;;32.76;37.08;98563.00;4978978;28;20054;-60
2023/05/18 10:23:37;;;;;;;14.38;5.93;;;;;;;32.70;36.20;98561.66;4984342;28;20061;-60
2023/05/18 10:26:08;;;;;;;12.60;5.72;;;;;;;32.48;34.58;98557.34;4970674;28;20467;-60
2023/05/18 10:28:50;;;;;;;16.15;5.15;;;;;;;32.49;36.87;98562.47;4988215;28;20057;-60
2023/05/18 10:31:22;;;;;;;13.87;5.10;;;;;;;32.53;35.92;98552.44;4982746;28;20519;-60
2023/05/18 10:33:54;;;;;;;12.93;4.80;;;;;;;32.62;36.60;98552.34;4976803;28;20355;-60
2023/05/18 10:36:28;;;;;;;15.18;5.50;;;;;;;32.66;35.85;98547.81;4983473;28;20050;-58
2023/05/18 10:39:00;;;;;;;13.05;5.18;;;;;;;32.72;37.13;98543.69;4987359;28;20105;-59
2023/05/18 10:41:34;;;;;;;13.57;5.00;;;;;;;32.67;36.80;98543.91;4983740;28;20588;-59
2023/05/18 10:44:05;;;;;;;15.98;4.68;;;;;;;32.59;35.72;98546.72;4986903;28;20446;-62
2023/05/18 10:46:36;;;;;;;17.05;5.55;;;;;;;32.64;37.62;98544.59;4970388;28;20101;-61
2023/05/18 10:49:12;;;;;;;15.45;5.07;;;;;;;32.64;36.10;98539.13;4969912;28;20049;-60
2023/05/18 10:51:46;;;;;;;18.42;5.60;;;;;;;32.61;35.00;98538.97;4984314;28;20054;-62
2023/05/18 10:54:15;;;;;;;11.93;5.03;;;;;;;32.63;36.41;98537.50;4985949;28;20065;-58
2023/05/18 10:56:49;;;;;;;17.35;5.50;;;;;;;32.60;36.08;98531.88;4986850;28;20073;-60
2023/05/18 10:59:22;;;;;;;12.95;6.40;;;;;;;32.64;35.27;98538.31;4638768;28;10000323;-58
2023/05/18 11:01:53;;;;;;;10.40;5.00;;;;;;;32.67;36.51;98537.63;4982366;28;20058;-57
2023/05/18 11:04:30;;;;;;;20.20;5.97;;;;;;;32.60;35.38;98518.97;4983924;28;20052;-58
2023/05/18 11:07:01;;;;;;;15.20;5.93;;;;;;;32.50;36.52;98522.94;4967389;28;20054;-59
2023/05/18 11:09:31;;;;;;;15.10;5.60;;;;;;;32.44;35.00;98512.56;4984169;28;20073;-60
2023/05/18 11:12:01;;;;;;;14.32;5.47;;;;;;;32.43;36.13;98513.69;4983948;28;20132;-59
2023/05/18 11:14:31;;;;;;;12.82;6.05;;;;;;;32.41;34.92;98515.97;4983576;28;20064;-59
2023/05/18 11:17:22;;;;;;;20.10;6.55;;;;;;;32.42;36.04;98509.34;4984465;28;20054;-60
2023/05/18 11:20:08;;;;;;;15.18;5.80;;;;;;;32.40;36.94;98506.94;4978921;28;20867;-60
2023/05/18 11:22:51;;;;;;;15.70;6.88;;;;;;;32.37;35.69;98504.88;4988262;28;20128;-60
2023/05/18 11:25:32;;;;;;;15.40;6.97;;;;;;;32.37;35.19;98504.06;4981819;28;20054;-59
2023/05/18 11:28:05;;;;;;;18.02;6.85;;;;;;;32.34;35.69;98502.03;4984962;28;20148;-63
2023/05/18 11:30:39;;;;;;;18.75;6.85;;;;;;;32.35;35.09;98506.38;4986026;28;20062;-59
2023/05/18 11:33:31;;;;;;;13.90;6.00;;;;;;;32.32;35.72;98498.81;4983625;28;20053;-59
2023/05/18 11:36:07;;;;;;;19.42;6.82;;;;;;;32.24;37.25;98497.78;4986342;28;20061;-59
2023/05/18 11:39:02;;;;;;;16.30;7.68;;;;;;;32.24;36.21;98495.03;4978256;28;20056;-60
2023/05/18 11:41:38;;;;;;;13.75;6.97;;;;;;;32.19;36.92;98486.22;4985731;28;20058;-58
2023/05/18 11:44:20;;;;;;;13.25;7.05;;;;;;;32.16;38.86;98484.97;4992241;28;20092;-57
2023/05/18 11:46:59;;;;;;;17.98;8.30;;;;;;;32.08;37.90;98483.91;4990506;28;20084;-58
2023/05/18 11:49:31;;;;;;;18.38;6.93;;;;;;;32.06;36.72;98482.63;4998922;28;20048;-59